Fire Weather Observation
Issued by NWS Grand Junction, CO

Home | Current Version | Previous Version | Text Only | Print | Product List | Glossary Off
Versions: 1 2 3 4 5 6 7 8 9 10 11 12 13 14 15 16 17 18 19 20 21 22 23 24 25 26 27 28 29 30 31 32 33 34 35

000
SHUS65 KGJT 172034
FWOGJT

DAILY FIRE WEATHER OBSERVATION
NATIONAL WEATHER SERVICE GRAND JUNCTION CO
212 PM MDT TUE APR 17 2018

STATE OF THE WEATHER (W)               3
DRY BULB TEMPERATURE                   46   DEGREES FAHRENHEIT
RELATIVE HUMIDITY (RH)                 38   PERCENT
LIGHTNING ACTIVITY LEVEL
  (LAL - MIDNIGHT TO 2 PM)             1
WIND DIRECTION                         315  DEGREES (C IF CALM)
WIND SPEED                             26   MPH
MAX TEMP (2 PM - 2 PM)                 74   DEGREES FAHRENHEIT
MIN TEMP (2 PM - 2 PM)                 44   DEGREES FAHRENHEIT
MAX RH (2 PM - 2 PM)                   53   PERCENT
MIN RH (2 PM - 2 PM)                   9    PERCENT
PCPN DURATION                          0.5  HOURS
PCPN AMT (2 PM - 2 PM)                 T    INCHES
LAL (2 PM - 2 PM)                      1

$$

METAR KGJT 171953Z 33023G35KT 10SM SCT065 OVC090 08/M06 A2994
      RMK AO2 PK WND 34035/1951 WSHFT 1920 SLP104 VCSH T00781056



USA.gov is the U.S. government's official web portal to all federal, state and local government web resources and services.